Valiant — NA35 — position and weather

sailwx.info

Track history (hours):
 
Tides and Currents Weather Stations Pressure Air Temp Water Temp Dewpoint Dewpoint Depression Visibility Wind Speed Wind Dir Waves Ship Positions

Valiant

Last reported at 2017-Jun-22 15:44 UTC. Time now 2017-Jun-22 22:26 UTC.
Position N 39°28' W 075°58'.

Length 14 m.

Type: Sailing vessel. MMSI: 369970076.

Date/timePositionNaut miles runAvg speedWind from/ knotsBaromVisibWave heightAir tempDewpointWater temp
2017-Jun-22 15:44N 39°28' W 075°58'2 8.3
2017-Jun-22 15:28N 39°30' W 075°56'4 8.1
2017-Jun-22 15:01N 39°32' W 075°52'7 7.4
2017-Jun-22 14:01N 39°33' W 075°43'3 6.8
2017-Jun-22 13:30N 39°33' W 075°38'3 6.5
2017-Jun-22 13:00N 39°34' W 075°34'3 5.2
2017-Jun-22 12:30N 39°31' W 075°33'2 4.9
2017-Jun-22 12:00N 39°29' W 075°34'3 6.3
2017-Jun-22 11:30N 39°26' W 075°32'4 7.7
2017-Jun-22 11:00N 39°23' W 075°29'4 7.0
2017-Jun-22 10:30N 39°20' W 075°25'5 7.2
2017-Jun-22 09:51N 39°17' W 075°22'2 6.5
2017-Jun-22 09:30N 39°15' W 075°20'3 6.1
2017-Jun-22 09:00N 39°13' W 075°17'3 7.0
2017-Jun-22 08:30N 39°10' W 075°15'4 6.9
2017-Jun-22 07:59N 39°07' W 075°12'3 6.0
2017-Jun-22 07:30N 39°04' W 075°10'3 6.0
2017-Jun-22 07:00N 39°01' W 075°09'3 6.8
2017-Jun-22 06:30N 38°58' W 075°07'3 6.6
2017-Jun-22 06:00N 38°55' W 075°05'3 5.4
2017-Jun-22 05:29N 38°53' W 075°04'1 2.8
2017-Jun-22 05:00N 38°52' W 075°03'1 2.3
2017-Jun-22 04:30N 38°51' W 075°03'1 1.6
2017-Jun-22 03:58N 38°50' W 075°02'62 4.3
2017-Jun-21 13:17N 39°35' W 074°07'2 6.8
2017-Jun-21 12:59N 39°36' W 074°05'4 6.6
2017-Jun-21 12:26N 39°39' W 074°01'3 6.3
2017-Jun-21 12:00N 39°40' W 073°58'3 5.4
2017-Jun-21 11:25N 39°43' W 073°58'53 4.9
2017-Jun-21 00:33N 40°36' W 074°02'1 8.4
2017-Jun-21 00:26N 40°37' W 074°03'3 7.1
2017-Jun-21 00:00N 40°40' W 074°03'2 4.9
2017-Jun-20 23:30N 40°43' W 074°02'0 0.3
2017-Jun-20 23:00N 40°43' W 074°03'0 0.0
2017-Jun-20 22:30N 40°43' W 074°03'0 0.0
2017-Jun-20 22:00N 40°43' W 074°03'0 0.0
2017-Jun-20 21:30N 40°43' W 074°03'0 0.0
2017-Jun-20 21:00N 40°43' W 074°03'0 0.1
2017-Jun-20 20:30N 40°43' W 074°02'0 0.0
2017-Jun-20 20:00N 40°43' W 074°02'0 0.2
2017-Jun-20 19:30N 40°43' W 074°03'1 2.1
2017-Jun-20 19:00N 40°42' W 074°01'71 6.1
2017-Jun-20 07:14N 41°12' W 072°35'2 7.4
2017-Jun-20 06:59N 41°12' W 072°33'4 7.6
2017-Jun-20 06:29N 41°12' W 072°28'  
2017-Jun-15 09:41N 39°35' W 073°14'3 5.3
2017-Jun-15 09:09N 39°33' W 073°17'1 3.6
2017-Jun-15 09:00N 39°32' W 073°17'  
Track history (hours):
 
Tides and Currents Weather Stations Pressure Air Temp Water Temp Dewpoint Dewpoint Depression Visibility Wind Speed Wind Dir Waves Ship Positions

Valiant

Last reported at 2017-Jun-22 15:44 UTC. Time now 2017-Jun-22 22:26 UTC.
Position N 39°28' W 075°58'.

Length 14 m.

Type: Sailing vessel. MMSI: 369970076.

Date/timePositionNaut miles runAvg speedWind from/ knotsBaromVisibWave heightAir tempDewpointWater temp
2017-Jun-22 15:44N 39°28' W 075°58'2 8.3
2017-Jun-22 15:28N 39°30' W 075°56'4 8.1
2017-Jun-22 15:01N 39°32' W 075°52'7 7.4
2017-Jun-22 14:01N 39°33' W 075°43'3 6.8
2017-Jun-22 13:30N 39°33' W 075°38'3 6.5
2017-Jun-22 13:00N 39°34' W 075°34'3 5.2
2017-Jun-22 12:30N 39°31' W 075°33'2 4.9
2017-Jun-22 12:00N 39°29' W 075°34'3 6.3
2017-Jun-22 11:30N 39°26' W 075°32'4 7.7
2017-Jun-22 11:00N 39°23' W 075°29'4 7.0
2017-Jun-22 10:30N 39°20' W 075°25'5 7.2
2017-Jun-22 09:51N 39°17' W 075°22'2 6.5
2017-Jun-22 09:30N 39°15' W 075°20'3 6.1
2017-Jun-22 09:00N 39°13' W 075°17'3 7.0
2017-Jun-22 08:30N 39°10' W 075°15'4 6.9
2017-Jun-22 07:59N 39°07' W 075°12'3 6.0
2017-Jun-22 07:30N 39°04' W 075°10'3 6.0
2017-Jun-22 07:00N 39°01' W 075°09'3 6.8
2017-Jun-22 06:30N 38°58' W 075°07'3 6.6
2017-Jun-22 06:00N 38°55' W 075°05'3 5.4
2017-Jun-22 05:29N 38°53' W 075°04'1 2.8
2017-Jun-22 05:00N 38°52' W 075°03'1 2.3
2017-Jun-22 04:30N 38°51' W 075°03'1 1.6
2017-Jun-22 03:58N 38°50' W 075°02'62 4.3
2017-Jun-21 13:17N 39°35' W 074°07'2 6.8
2017-Jun-21 12:59N 39°36' W 074°05'4 6.6
2017-Jun-21 12:26N 39°39' W 074°01'3 6.3
2017-Jun-21 12:00N 39°40' W 073°58'3 5.4
2017-Jun-21 11:25N 39°43' W 073°58'53 4.9
2017-Jun-21 00:33N 40°36' W 074°02'1 8.4
2017-Jun-21 00:26N 40°37' W 074°03'3 7.1
2017-Jun-21 00:00N 40°40' W 074°03'2 4.9
2017-Jun-20 23:30N 40°43' W 074°02'0 0.3
2017-Jun-20 23:00N 40°43' W 074°03'0 0.0
2017-Jun-20 22:30N 40°43' W 074°03'0 0.0
2017-Jun-20 22:00N 40°43' W 074°03'0 0.0
2017-Jun-20 21:30N 40°43' W 074°03'0 0.0
2017-Jun-20 21:00N 40°43' W 074°03'0 0.1
2017-Jun-20 20:30N 40°43' W 074°02'0 0.0
2017-Jun-20 20:00N 40°43' W 074°02'0 0.2
2017-Jun-20 19:30N 40°43' W 074°03'1 2.1
2017-Jun-20 19:00N 40°42' W 074°01'71 6.1
2017-Jun-20 07:14N 41°12' W 072°35'2 7.4
2017-Jun-20 06:59N 41°12' W 072°33'4 7.6
2017-Jun-20 06:29N 41°12' W 072°28'  
2017-Jun-15 09:41N 39°35' W 073°14'3 5.3
2017-Jun-15 09:09N 39°33' W 073°17'1 3.6
2017-Jun-15 09:00N 39°32' W 073°17'  

Dump ship's entire track history